sensor_id;sensor_type;location;lat;lon;timestamp;temperature;humidity
148;DHT22;142;50.652;12.216;2022-07-10T00:00:30;15.70;67.60
148;DHT22;142;50.652;12.216;2022-07-10T00:02:58;15.70;68.20
148;DHT22;142;50.652;12.216;2022-07-10T00:07:52;15.80;69.60
148;DHT22;142;50.652;12.216;2022-07-10T00:10:21;15.80;69.90
148;DHT22;142;50.652;12.216;2022-07-10T00:12:51;15.70;69.70
148;DHT22;142;50.652;12.216;2022-07-10T00:15:18;15.60;69.70
148;DHT22;142;50.652;12.216;2022-07-10T00:17:46;15.60;69.70
148;DHT22;142;50.652;12.216;2022-07-10T00:20:14;15.50;69.90
148;DHT22;142;50.652;12.216;2022-07-10T00:22:43;15.40;69.70
148;DHT22;142;50.652;12.216;2022-07-10T00:25:11;15.40;69.70
148;DHT22;142;50.652;12.216;2022-07-10T00:27:39;15.40;68.90
148;DHT22;142;50.652;12.216;2022-07-10T00:30:10;15.50;68.70
148;DHT22;142;50.652;12.216;2022-07-10T00:32:38;15.50;69.30
148;DHT22;142;50.652;12.216;2022-07-10T00:35:05;15.50;69.40
148;DHT22;142;50.652;12.216;2022-07-10T00:37:33;15.50;69.90
148;DHT22;142;50.652;12.216;2022-07-10T00:40:02;15.50;70.00
148;DHT22;142;50.652;12.216;2022-07-10T00:42:31;15.60;70.30
148;DHT22;142;50.652;12.216;2022-07-10T00:44:59;15.60;70.20
148;DHT22;142;50.652;12.216;2022-07-10T00:47:27;15.60;70.50
148;DHT22;142;50.652;12.216;2022-07-10T00:49:54;15.50;70.80
148;DHT22;142;50.652;12.216;2022-07-10T00:52:22;15.50;70.90
148;DHT22;142;50.652;12.216;2022-07-10T00:54:50;15.40;71.10
148;DHT22;142;50.652;12.216;2022-07-10T00:57:19;15.40;71.60
148;DHT22;142;50.652;12.216;2022-07-10T00:59:48;15.40;71.90
148;DHT22;142;50.652;12.216;2022-07-10T01:02:16;15.40;71.70
148;DHT22;142;50.652;12.216;2022-07-10T01:04:45;15.30;71.60
148;DHT22;142;50.652;12.216;2022-07-10T01:07:12;15.30;71.90
148;DHT22;142;50.652;12.216;2022-07-10T01:09:42;15.30;72.00
148;DHT22;142;50.652;12.216;2022-07-10T01:12:11;15.30;72.50
148;DHT22;142;50.652;12.216;2022-07-10T01:14:39;15.30;72.70
148;DHT22;142;50.652;12.216;2022-07-10T01:17:08;15.30;72.80
148;DHT22;142;50.652;12.216;2022-07-10T01:19:36;15.30;72.50
148;DHT22;142;50.652;12.216;2022-07-10T01:22:04;15.30;72.40
148;DHT22;142;50.652;12.216;2022-07-10T01:24:31;15.30;72.30
148;DHT22;142;50.652;12.216;2022-07-10T01:26:58;15.30;72.00
148;DHT22;142;50.652;12.216;2022-07-10T01:29:26;15.20;72.00
148;DHT22;142;50.652;12.216;2022-07-10T01:31:54;15.30;72.20
148;DHT22;142;50.652;12.216;2022-07-10T01:34:22;15.30;71.90
148;DHT22;142;50.652;12.216;2022-07-10T01:36:49;15.20;71.40
148;DHT22;142;50.652;12.216;2022-07-10T01:39:18;15.10;70.60
148;DHT22;142;50.652;12.216;2022-07-10T01:41:45;15.10;70.20
148;DHT22;142;50.652;12.216;2022-07-10T01:44:13;15.10;70.40
148;DHT22;142;50.652;12.216;2022-07-10T01:46:44;15.10;70.00
148;DHT22;142;50.652;12.216;2022-07-10T01:49:12;15.10;69.90
148;DHT22;142;50.652;12.216;2022-07-10T01:51:39;15.10;69.90
148;DHT22;142;50.652;12.216;2022-07-10T01:54:06;15.10;69.90
148;DHT22;142;50.652;12.216;2022-07-10T01:56:35;15.10;69.10
148;DHT22;142;50.652;12.216;2022-07-10T01:59:04;15.10;69.00
148;DHT22;142;50.652;12.216;2022-07-10T02:01:31;14.90;68.30
148;DHT22;142;50.652;12.216;2022-07-10T02:03:58;14.90;68.30
148;DHT22;142;50.652;12.216;2022-07-10T02:06:42;14.90;68.60
148;DHT22;142;50.652;12.216;2022-07-10T02:09:10;14.90;68.40
148;DHT22;142;50.652;12.216;2022-07-10T02:11:38;14.90;68.80
148;DHT22;142;50.652;12.216;2022-07-10T02:14:06;14.80;68.70
148;DHT22;142;50.652;12.216;2022-07-10T02:16:33;14.80;68.80
148;DHT22;142;50.652;12.216;2022-07-10T02:19:01;14.80;68.80
148;DHT22;142;50.652;12.216;2022-07-10T02:21:29;14.60;67.80
148;DHT22;142;50.652;12.216;2022-07-10T02:23:56;14.60;68.50
148;DHT22;142;50.652;12.216;2022-07-10T02:26:23;14.60;68.60
148;DHT22;142;50.652;12.216;2022-07-10T02:28:51;14.70;68.80
148;DHT22;142;50.652;12.216;2022-07-10T02:31:18;14.70;68.80
148;DHT22;142;50.652;12.216;2022-07-10T02:33:45;14.70;68.70
148;DHT22;142;50.652;12.216;2022-07-10T02:36:12;14.70;69.00
148;DHT22;142;50.652;12.216;2022-07-10T02:38:39;14.60;69.00
148;DHT22;142;50.652;12.216;2022-07-10T02:41:06;14.60;69.30
148;DHT22;142;50.652;12.216;2022-07-10T02:43:33;14.60;69.40
148;DHT22;142;50.652;12.216;2022-07-10T02:46:02;14.60;69.20
148;DHT22;142;50.652;12.216;2022-07-10T02:48:29;14.50;68.70
148;DHT22;142;50.652;12.216;2022-07-10T02:50:56;14.40;68.80
148;DHT22;142;50.652;12.216;2022-07-10T02:53:25;14.40;69.10
148;DHT22;142;50.652;12.216;2022-07-10T02:55:52;14.40;69.20
148;DHT22;142;50.652;12.216;2022-07-10T02:58:19;14.30;69.40
148;DHT22;142;50.652;12.216;2022-07-10T03:00:46;14.30;69.80
148;DHT22;142;50.652;12.216;2022-07-10T03:03:15;14.30;70.00
148;DHT22;142;50.652;12.216;2022-07-10T03:05:43;14.30;70.10
148;DHT22;142;50.652;12.216;2022-07-10T03:08:10;14.20;69.80
148;DHT22;142;50.652;12.216;2022-07-10T03:10:38;14.20;69.80
148;DHT22;142;50.652;12.216;2022-07-10T03:13:06;14.20;69.30
148;DHT22;142;50.652;12.216;2022-07-10T03:15:33;14.20;69.30
148;DHT22;142;50.652;12.216;2022-07-10T03:18:00;14.20;69.30
148;DHT22;142;50.652;12.216;2022-07-10T03:20:29;14.20;69.10
148;DHT22;142;50.652;12.216;2022-07-10T03:22:57;14.20;68.80
148;DHT22;142;50.652;12.216;2022-07-10T03:25:23;14.30;69.20
148;DHT22;142;50.652;12.216;2022-07-10T03:27:51;14.30;69.10
148;DHT22;142;50.652;12.216;2022-07-10T03:30:18;14.30;69.10
148;DHT22;142;50.652;12.216;2022-07-10T03:32:45;14.30;68.90
148;DHT22;142;50.652;12.216;2022-07-10T03:35:13;14.20;69.00
148;DHT22;142;50.652;12.216;2022-07-10T03:37:41;14.30;69.10
148;DHT22;142;50.652;12.216;2022-07-10T03:40:09;14.30;69.10
148;DHT22;142;50.652;12.216;2022-07-10T03:42:36;14.30;69.10
148;DHT22;142;50.652;12.216;2022-07-10T03:45:04;14.30;68.30
148;DHT22;142;50.652;12.216;2022-07-10T03:47:32;14.30;68.60
148;DHT22;142;50.652;12.216;2022-07-10T03:49:59;14.30;68.70
148;DHT22;142;50.652;12.216;2022-07-10T03:52:27;14.30;68.60
148;DHT22;142;50.652;12.216;2022-07-10T03:54:56;14.30;68.20
148;DHT22;142;50.652;12.216;2022-07-10T03:57:23;14.40;68.30
148;DHT22;142;50.652;12.216;2022-07-10T04:00:09;14.40;67.90
148;DHT22;142;50.652;12.216;2022-07-10T04:02:37;14.40;68.00
148;DHT22;142;50.652;12.216;2022-07-10T04:05:05;14.40;68.10
148;DHT22;142;50.652;12.216;2022-07-10T04:07:33;14.50;67.90
148;DHT22;142;50.652;12.216;2022-07-10T04:10:02;14.50;67.40
148;DHT22;142;50.652;12.216;2022-07-10T04:12:30;14.50;67.00
148;DHT22;142;50.652;12.216;2022-07-10T04:14:56;14.50;67.20
148;DHT22;142;50.652;12.216;2022-07-10T04:17:23;14.50;67.40
148;DHT22;142;50.652;12.216;2022-07-10T04:19:51;14.50;67.80
148;DHT22;142;50.652;12.216;2022-07-10T04:22:18;14.50;68.10
148;DHT22;142;50.652;12.216;2022-07-10T04:24:45;14.60;67.60
148;DHT22;142;50.652;12.216;2022-07-10T04:27:14;14.60;67.60
148;DHT22;142;50.652;12.216;2022-07-10T04:29:42;14.70;67.40
148;DHT22;142;50.652;12.216;2022-07-10T04:32:09;14.70;66.80
148;DHT22;142;50.652;12.216;2022-07-10T04:34:37;14.70;66.70
148;DHT22;142;50.652;12.216;2022-07-10T04:37:04;14.70;66.50
148;DHT22;142;50.652;12.216;2022-07-10T04:39:32;14.70;66.70
148;DHT22;142;50.652;12.216;2022-07-10T04:42:00;14.80;66.80
148;DHT22;142;50.652;12.216;2022-07-10T04:44:28;14.90;65.90
148;DHT22;142;50.652;12.216;2022-07-10T04:46:56;14.90;66.10
148;DHT22;142;50.652;12.216;2022-07-10T04:49:24;15.00;66.20
148;DHT22;142;50.652;12.216;2022-07-10T04:51:51;15.00;65.80
148;DHT22;142;50.652;12.216;2022-07-10T04:54:18;15.10;65.40
148;DHT22;142;50.652;12.216;2022-07-10T04:56:45;15.10;65.00
148;DHT22;142;50.652;12.216;2022-07-10T04:59:12;15.10;65.30
148;DHT22;142;50.652;12.216;2022-07-10T05:01:43;15.00;64.40
148;DHT22;142;50.652;12.216;2022-07-10T05:04:10;14.90;64.60
148;DHT22;142;50.652;12.216;2022-07-10T05:06:37;15.00;65.00
148;DHT22;142;50.652;12.216;2022-07-10T05:09:04;15.10;64.80
148;DHT22;142;50.652;12.216;2022-07-10T05:11:32;15.00;64.40
148;DHT22;142;50.652;12.216;2022-07-10T05:13:59;14.80;64.20
148;DHT22;142;50.652;12.216;2022-07-10T05:16:26;14.80;64.70
148;DHT22;142;50.652;12.216;2022-07-10T05:18:55;14.80;65.20
148;DHT22;142;50.652;12.216;2022-07-10T05:21:22;14.90;64.50
148;DHT22;142;50.652;12.216;2022-07-10T05:23:50;14.80;64.00
148;DHT22;142;50.652;12.216;2022-07-10T05:26:18;15.00;64.50
148;DHT22;142;50.652;12.216;2022-07-10T05:28:45;15.20;64.80
148;DHT22;142;50.652;12.216;2022-07-10T05:31:12;15.30;63.10
148;DHT22;142;50.652;12.216;2022-07-10T05:33:39;15.20;63.10
148;DHT22;142;50.652;12.216;2022-07-10T05:36:09;15.40;63.10
148;DHT22;142;50.652;12.216;2022-07-10T20:35:21;16.70;75.10
148;DHT22;142;50.652;12.216;2022-07-10T20:37:49;16.60;74.50
148;DHT22;142;50.652;12.216;2022-07-10T23:55:02;13.40;71.20
148;DHT22;142;50.652;12.216;2022-07-10T23:57:29;13.30;71.40
148;DHT22;142;50.652;12.216;2022-07-10T23:59:57;13.10;71.60
